sensor_id;sensor_type;location;lat;lon;timestamp;pressure;altitude;pressure_sealevel;temperature;humidity
48364;BME280;34170;54.364;18.582;2023-08-07T00:00:15;98232.25;;;17.79;100.00
48364;BME280;34170;54.364;18.582;2023-08-07T00:03:02;98233.81;;;17.75;100.00
48364;BME280;34170;54.364;18.582;2023-08-07T00:05:30;98243.22;;;17.55;100.00
48364;BME280;34170;54.364;18.582;2023-08-07T00:07:58;98238.72;;;17.61;100.00
48364;BME280;34170;54.364;18.582;2023-08-07T00:10:26;98232.69;;;17.06;100.00
48364;BME280;34170;54.364;18.582;2023-08-07T00:12:53;98245.06;;;17.14;100.00
48364;BME280;34170;54.364;18.582;2023-08-07T00:15:21;98243.53;;;17.06;100.00
48364;BME280;34170;54.364;18.582;2023-08-07T00:17:48;98245.03;;;17.26;100.00
48364;BME280;34170;54.364;18.582;2023-08-07T00:20:16;98238.19;;;17.23;100.00
48364;BME280;34170;54.364;18.582;2023-08-07T00:22:44;98239.47;;;17.32;100.00
48364;BME280;34170;54.364;18.582;2023-08-07T00:25:11;98234.44;;;17.24;100.00
48364;BME280;34170;54.364;18.582;2023-08-07T00:27:39;98232.41;;;17.20;100.00
48364;BME280;34170;54.364;18.582;2023-08-07T00:30:07;98231.38;;;17.21;100.00
48364;BME280;34170;54.364;18.582;2023-08-07T00:32:34;98236.53;;;17.22;100.00
48364;BME280;34170;54.364;18.582;2023-08-07T00:35:02;98239.97;;;17.18;100.00
48364;BME280;34170;54.364;18.582;2023-08-07T00:37:31;98237.84;;;17.20;100.00
48364;BME280;34170;54.364;18.582;2023-08-07T00:39:59;98247.50;;;17.27;100.00
48364;BME280;34170;54.364;18.582;2023-08-07T00:42:26;98239.00;;;17.24;100.00
48364;BME280;34170;54.364;18.582;2023-08-07T00:44:54;98236.19;;;17.30;100.00
48364;BME280;34170;54.364;18.582;2023-08-07T00:47:22;98232.66;;;17.30;100.00
48364;BME280;34170;54.364;18.582;2023-08-07T00:49:50;98230.16;;;17.28;100.00
48364;BME280;34170;54.364;18.582;2023-08-07T00:52:17;98229.34;;;17.28;100.00
48364;BME280;34170;54.364;18.582;2023-08-07T00:54:47;98244.09;;;17.20;100.00
48364;BME280;34170;54.364;18.582;2023-08-07T00:57:15;98240.31;;;17.21;100.00
48364;BME280;34170;54.364;18.582;2023-08-07T00:59:44;98219.19;;;17.11;100.00
48364;BME280;34170;54.364;18.582;2023-08-07T01:02:12;98218.63;;;16.98;100.00
48364;BME280;34170;54.364;18.582;2023-08-07T01:04:41;98212.97;;;16.87;100.00
48364;BME280;34170;54.364;18.582;2023-08-07T01:07:08;98210.09;;;16.82;100.00
48364;BME280;34170;54.364;18.582;2023-08-07T01:09:36;98218.22;;;16.70;100.00
48364;BME280;34170;54.364;18.582;2023-08-07T01:12:20;98214.09;;;16.68;100.00
48364;BME280;34170;54.364;18.582;2023-08-07T01:14:57;98217.88;;;16.67;100.00
48364;BME280;34170;54.364;18.582;2023-08-07T01:17:26;98212.22;;;16.68;100.00
48364;BME280;34170;54.364;18.582;2023-08-07T01:19:55;98214.22;;;16.61;100.00
48364;BME280;34170;54.364;18.582;2023-08-07T01:22:24;98211.97;;;16.46;100.00
48364;BME280;34170;54.364;18.582;2023-08-07T01:24:52;98223.31;;;16.67;100.00
48364;BME280;34170;54.364;18.582;2023-08-07T01:27:42;98210.22;;;16.75;100.00
48364;BME280;34170;54.364;18.582;2023-08-07T01:30:26;98200.56;;;16.80;100.00
48364;BME280;34170;54.364;18.582;2023-08-07T01:35:46;98186.97;;;16.68;100.00
48364;BME280;34170;54.364;18.582;2023-08-07T01:38:15;98183.91;;;16.76;100.00
48364;BME280;34170;54.364;18.582;2023-08-07T01:40:42;98186.25;;;16.61;100.00
48364;BME280;34170;54.364;18.582;2023-08-07T01:43:11;98192.41;;;16.68;100.00
48364;BME280;34170;54.364;18.582;2023-08-07T01:45:39;98187.94;;;16.62;100.00
48364;BME280;34170;54.364;18.582;2023-08-07T01:48:07;98186.94;;;16.32;100.00
48364;BME280;34170;54.364;18.582;2023-08-07T01:50:35;98180.13;;;16.53;100.00
48364;BME280;34170;54.364;18.582;2023-08-07T01:53:03;98183.78;;;16.59;100.00
48364;BME280;34170;54.364;18.582;2023-08-07T01:55:31;98184.13;;;16.63;100.00
48364;BME280;34170;54.364;18.582;2023-08-07T01:57:58;98183.22;;;16.69;100.00
48364;BME280;34170;54.364;18.582;2023-08-07T02:00:26;98191.56;;;16.79;100.00
48364;BME280;34170;54.364;18.582;2023-08-07T02:02:53;98196.75;;;16.81;100.00
48364;BME280;34170;54.364;18.582;2023-08-07T02:05:21;98201.59;;;16.78;100.00
48364;BME280;34170;54.364;18.582;2023-08-07T02:07:48;98186.00;;;16.74;100.00
48364;BME280;34170;54.364;18.582;2023-08-07T02:10:16;98186.00;;;16.74;100.00
48364;BME280;34170;54.364;18.582;2023-08-07T02:12:43;98167.50;;;16.59;100.00
48364;BME280;34170;54.364;18.582;2023-08-07T02:15:11;98163.88;;;16.65;100.00
48364;BME280;34170;54.364;18.582;2023-08-07T02:17:38;98162.81;;;16.54;100.00
48364;BME280;34170;54.364;18.582;2023-08-07T02:20:09;98167.84;;;16.63;100.00
48364;BME280;34170;54.364;18.582;2023-08-07T02:22:36;98161.34;;;16.28;100.00
48364;BME280;34170;54.364;18.582;2023-08-07T02:25:05;98159.47;;;16.52;100.00
48364;BME280;34170;54.364;18.582;2023-08-07T02:27:32;98165.50;;;16.54;100.00
48364;BME280;34170;54.364;18.582;2023-08-07T02:30:00;98168.72;;;15.97;100.00
48364;BME280;34170;54.364;18.582;2023-08-07T02:32:30;98175.47;;;16.18;100.00
48364;BME280;34170;54.364;18.582;2023-08-07T02:34:57;98168.97;;;15.96;100.00
48364;BME280;34170;54.364;18.582;2023-08-07T02:37:25;98164.34;;;15.96;100.00
48364;BME280;34170;54.364;18.582;2023-08-07T02:39:53;98171.91;;;15.94;100.00
48364;BME280;34170;54.364;18.582;2023-08-07T02:42:21;98176.16;;;16.02;100.00
48364;BME280;34170;54.364;18.582;2023-08-07T02:44:48;98173.63;;;15.58;100.00
48364;BME280;34170;54.364;18.582;2023-08-07T02:47:16;98172.72;;;15.95;100.00
48364;BME280;34170;54.364;18.582;2023-08-07T02:49:43;98196.59;;;16.16;100.00
48364;BME280;34170;54.364;18.582;2023-08-07T02:52:11;98202.91;;;15.98;100.00
48364;BME280;34170;54.364;18.582;2023-08-07T02:54:39;98192.41;;;15.90;100.00
48364;BME280;34170;54.364;18.582;2023-08-07T02:57:06;98193.34;;;15.96;100.00
48364;BME280;34170;54.364;18.582;2023-08-07T02:59:34;98189.28;;;16.17;100.00
48364;BME280;34170;54.364;18.582;2023-08-07T03:02:01;98197.78;;;16.20;100.00
48364;BME280;34170;54.364;18.582;2023-08-07T03:04:29;98182.94;;;16.35;100.00
48364;BME280;34170;54.364;18.582;2023-08-07T03:06:57;98193.00;;;16.04;100.00
48364;BME280;34170;54.364;18.582;2023-08-07T03:09:24;98211.22;;;16.15;100.00
48364;BME280;34170;54.364;18.582;2023-08-07T03:11:52;98203.75;;;15.99;100.00
48364;BME280;34170;54.364;18.582;2023-08-07T03:14:20;98210.25;;;16.10;100.00
48364;BME280;34170;54.364;18.582;2023-08-07T03:16:47;98211.75;;;16.06;100.00
48364;BME280;34170;54.364;18.582;2023-08-07T03:19:15;98204.63;;;16.23;100.00
48364;BME280;34170;54.364;18.582;2023-08-07T03:21:42;98206.28;;;16.36;100.00
48364;BME280;34170;54.364;18.582;2023-08-07T03:24:12;98193.22;;;16.45;100.00
48364;BME280;34170;54.364;18.582;2023-08-07T03:26:39;98187.91;;;16.50;100.00
48364;BME280;34170;54.364;18.582;2023-08-07T03:29:08;98176.47;;;16.48;100.00
48364;BME280;34170;54.364;18.582;2023-08-07T03:31:37;98176.28;;;15.95;100.00
48364;BME280;34170;54.364;18.582;2023-08-07T03:34:05;98187.31;;;16.24;100.00
48364;BME280;34170;54.364;18.582;2023-08-07T03:36:33;98195.34;;;16.43;100.00
48364;BME280;34170;54.364;18.582;2023-08-07T03:39:01;98189.44;;;16.34;100.00
48364;BME280;34170;54.364;18.582;2023-08-07T03:41:28;98204.44;;;16.36;100.00
48364;BME280;34170;54.364;18.582;2023-08-07T03:43:57;98224.94;;;16.44;100.00
48364;BME280;34170;54.364;18.582;2023-08-07T03:46:24;98236.06;;;16.54;100.00
48364;BME280;34170;54.364;18.582;2023-08-07T03:48:52;98240.09;;;16.22;100.00
48364;BME280;34170;54.364;18.582;2023-08-07T03:51:20;98260.53;;;16.36;100.00
48364;BME280;34170;54.364;18.582;2023-08-07T03:53:51;98256.78;;;16.37;100.00
48364;BME280;34170;54.364;18.582;2023-08-07T03:56:20;98245.31;;;15.93;100.00
48364;BME280;34170;54.364;18.582;2023-08-07T03:58:47;98248.06;;;16.35;100.00
48364;BME280;34170;54.364;18.582;2023-08-07T04:01:18;98235.34;;;16.59;100.00
48364;BME280;34170;54.364;18.582;2023-08-07T04:03:46;98237.72;;;16.79;100.00
48364;BME280;34170;54.364;18.582;2023-08-07T04:06:15;98234.19;;;17.14;100.00
48364;BME280;34170;54.364;18.582;2023-08-07T04:08:47;98216.34;;;17.18;100.00
48364;BME280;34170;54.364;18.582;2023-08-07T04:11:15;98219.84;;;18.12;100.00
48364;BME280;34170;54.364;18.582;2023-08-07T04:13:43;98223.91;;;18.60;100.00
48364;BME280;34170;54.364;18.582;2023-08-07T04:16:10;98228.53;;;19.10;98.16
48364;BME280;34170;54.364;18.582;2023-08-07T04:18:38;98215.03;;;18.64;99.52
48364;BME280;34170;54.364;18.582;2023-08-07T04:21:05;98210.19;;;18.83;99.83
48364;BME280;34170;54.364;18.582;2023-08-07T04:23:33;98221.69;;;19.30;94.72
48364;BME280;34170;54.364;18.582;2023-08-07T04:26:01;98228.03;;;19.13;96.86
48364;BME280;34170;54.364;18.582;2023-08-07T04:28:29;98227.94;;;19.91;91.99
48364;BME280;34170;54.364;18.582;2023-08-07T04:30:57;98232.94;;;19.55;89.76
48364;BME280;34170;54.364;18.582;2023-08-07T04:33:25;98223.59;;;19.07;95.25
48364;BME280;34170;54.364;18.582;2023-08-07T04:35:52;98220.13;;;18.78;96.22
48364;BME280;34170;54.364;18.582;2023-08-07T04:38:20;98224.22;;;18.29;100.00
48364;BME280;34170;54.364;18.582;2023-08-07T04:40:48;98236.09;;;18.06;99.53
48364;BME280;34170;54.364;18.582;2023-08-07T04:43:18;98256.16;;;17.88;100.00
48364;BME280;34170;54.364;18.582;2023-08-07T04:45:47;98245.25;;;17.48;100.00
48364;BME280;34170;54.364;18.582;2023-08-07T04:48:14;98255.78;;;17.32;100.00
48364;BME280;34170;54.364;18.582;2023-08-07T04:50:42;98261.66;;;17.53;100.00
48364;BME280;34170;54.364;18.582;2023-08-07T04:53:10;98258.19;;;17.69;100.00
48364;BME280;34170;54.364;18.582;2023-08-07T04:55:38;98252.75;;;17.69;100.00
48364;BME280;34170;54.364;18.582;2023-08-07T04:58:06;98260.59;;;17.83;100.00
48364;BME280;34170;54.364;18.582;2023-08-07T05:00:33;98255.88;;;17.90;100.00
48364;BME280;34170;54.364;18.582;2023-08-07T05:03:01;98265.22;;;17.82;100.00
48364;BME280;34170;54.364;18.582;2023-08-07T05:05:29;98261.28;;;18.02;100.00
48364;BME280;34170;54.364;18.582;2023-08-07T05:07:58;98245.84;;;18.19;100.00
48364;BME280;34170;54.364;18.582;2023-08-07T05:10:25;98255.25;;;18.45;96.92
48364;BME280;34170;54.364;18.582;2023-08-07T05:12:53;98270.75;;;18.28;100.00
48364;BME280;34170;54.364;18.582;2023-08-07T05:15:24;98269.34;;;17.97;98.99
48364;BME280;34170;54.364;18.582;2023-08-07T05:17:52;98280.13;;;17.91;99.99
48364;BME280;34170;54.364;18.582;2023-08-07T05:20:20;98270.56;;;17.89;99.56
48364;BME280;34170;54.364;18.582;2023-08-07T05:22:47;98270.69;;;18.11;99.61
48364;BME280;34170;54.364;18.582;2023-08-07T05:25:16;98254.56;;;18.21;99.79
48364;BME280;34170;54.364;18.582;2023-08-07T05:27:44;98252.47;;;18.40;97.04
48364;BME280;34170;54.364;18.582;2023-08-07T05:30:13;98245.50;;;18.16;97.72
48364;BME280;34170;54.364;18.582;2023-08-07T05:32:41;98240.09;;;18.50;95.66
48364;BME280;34170;54.364;18.582;2023-08-07T05:35:09;98223.91;;;18.60;95.82
48364;BME280;34170;54.364;18.582;2023-08-07T05:37:36;98233.03;;;20.10;86.01
48364;BME280;34170;54.364;18.582;2023-08-07T05:40:05;98238.53;;;20.15;83.90
48364;BME280;34170;54.364;18.582;2023-08-07T05:42:33;98244.28;;;19.08;89.52
48364;BME280;34170;54.364;18.582;2023-08-07T05:45:03;98244.88;;;19.71;86.24
48364;BME280;34170;54.364;18.582;2023-08-07T05:47:32;98247.34;;;20.22;80.89
48364;BME280;34170;54.364;18.582;2023-08-07T05:50:00;98250.09;;;20.54;78.71
48364;BME280;34170;54.364;18.582;2023-08-07T05:52:28;98244.41;;;20.93;76.83
48364;BME280;34170;54.364;18.582;2023-08-07T05:54:56;98257.22;;;21.88;69.80
48364;BME280;34170;54.364;18.582;2023-08-07T05:57:23;98256.75;;;22.02;67.17
48364;BME280;34170;54.364;18.582;2023-08-07T05:59:51;98256.03;;;20.46;74.17
48364;BME280;34170;54.364;18.582;2023-08-07T06:02:19;98260.97;;;20.22;76.94
48364;BME280;34170;54.364;18.582;2023-08-07T06:04:47;98255.19;;;19.47;80.91
48364;BME280;34170;54.364;18.582;2023-08-07T06:07:15;98269.13;;;19.51;82.42
48364;BME280;34170;54.364;18.582;2023-08-07T06:09:43;98276.84;;;20.52;76.65
48364;BME280;34170;54.364;18.582;2023-08-07T06:12:10;98278.16;;;20.77;74.29
48364;BME280;34170;54.364;18.582;2023-08-07T06:14:38;98274.13;;;20.25;76.44
48364;BME280;34170;54.364;18.582;2023-08-07T06:17:05;98279.31;;;21.66;69.80
48364;BME280;34170;54.364;18.582;2023-08-07T06:19:33;98277.41;;;21.24;70.02
48364;BME280;34170;54.364;18.582;2023-08-07T06:22:00;98284.63;;;20.98;70.92
48364;BME280;34170;54.364;18.582;2023-08-07T06:24:28;98260.44;;;20.52;74.20
48364;BME280;34170;54.364;18.582;2023-08-07T06:26:56;98251.97;;;20.22;77.57
48364;BME280;34170;54.364;18.582;2023-08-07T06:29:23;98256.53;;;19.89;79.43
48364;BME280;34170;54.364;18.582;2023-08-07T06:31:51;98270.31;;;19.77;79.41
48364;BME280;34170;54.364;18.582;2023-08-07T06:34:19;98258.72;;;20.14;77.45
48364;BME280;34170;54.364;18.582;2023-08-07T06:36:46;98272.72;;;20.23;76.24
48364;BME280;34170;54.364;18.582;2023-08-07T06:39:14;98287.97;;;21.05;71.55
48364;BME280;34170;54.364;18.582;2023-08-07T06:41:41;98291.56;;;21.54;69.60
48364;BME280;34170;54.364;18.582;2023-08-07T06:44:10;98290.91;;;21.41;70.21
48364;BME280;34170;54.364;18.582;2023-08-07T06:46:37;98297.97;;;22.79;62.47
48364;BME280;34170;54.364;18.582;2023-08-07T06:49:05;98287.97;;;23.70;57.36
48364;BME280;34170;54.364;18.582;2023-08-07T06:51:32;98301.75;;;24.25;54.92
48364;BME280;34170;54.364;18.582;2023-08-07T06:54:00;98304.56;;;25.28;50.56
48364;BME280;34170;54.364;18.582;2023-08-07T06:56:27;98294.16;;;26.60;46.16
48364;BME280;34170;54.364;18.582;2023-08-07T06:58:55;98309.56;;;28.43;41.42
48364;BME280;34170;54.364;18.582;2023-08-07T07:01:22;98313.41;;;29.15;39.15
48364;BME280;34170;54.364;18.582;2023-08-07T07:03:50;98307.25;;;27.53;42.13
48364;BME280;34170;54.364;18.582;2023-08-07T07:06:20;98324.88;;;26.72;43.88
48364;BME280;34170;54.364;18.582;2023-08-07T07:08:48;98320.84;;;26.46;44.77
48364;BME280;34170;54.364;18.582;2023-08-07T07:11:16;98331.53;;;23.92;51.82
48364;BME280;34170;54.364;18.582;2023-08-07T07:13:46;98328.59;;;22.60;59.09
48364;BME280;34170;54.364;18.582;2023-08-07T07:16:14;98325.34;;;22.94;59.07
48364;BME280;34170;54.364;18.582;2023-08-07T07:18:41;98319.38;;;24.09;54.09
48364;BME280;34170;54.364;18.582;2023-08-07T07:21:09;98330.72;;;23.76;54.04
48364;BME280;34170;54.364;18.582;2023-08-07T07:23:36;98310.56;;;22.85;56.78
48364;BME280;34170;54.364;18.582;2023-08-07T07:26:04;98321.94;;;23.79;54.90
48364;BME280;34170;54.364;18.582;2023-08-07T07:28:31;98335.16;;;25.51;49.48
48364;BME280;34170;54.364;18.582;2023-08-07T07:30:59;98325.78;;;25.52;47.28
48364;BME280;34170;54.364;18.582;2023-08-07T07:33:27;98332.84;;;26.12;46.64
48364;BME280;34170;54.364;18.582;2023-08-07T07:35:55;98329.31;;;25.82;46.84
48364;BME280;34170;54.364;18.582;2023-08-07T07:38:22;98336.91;;;25.42;47.31
48364;BME280;34170;54.364;18.582;2023-08-07T07:40:50;98324.56;;;24.15;51.36
48364;BME280;34170;54.364;18.582;2023-08-07T07:43:17;98315.56;;;24.60;51.67
48364;BME280;34170;54.364;18.582;2023-08-07T07:45:45;98321.59;;;25.84;47.24
48364;BME280;34170;54.364;18.582;2023-08-07T07:48:13;98300.56;;;23.82;51.43
48364;BME280;34170;54.364;18.582;2023-08-07T07:50:41;98310.19;;;24.34;51.05
48364;BME280;34170;54.364;18.582;2023-08-07T07:53:09;98307.69;;;25.46;47.43
48364;BME280;34170;54.364;18.582;2023-08-07T07:55:36;98314.78;;;24.54;50.29
48364;BME280;34170;54.364;18.582;2023-08-07T07:58:05;98316.03;;;22.95;55.87
48364;BME280;34170;54.364;18.582;2023-08-07T08:00:33;98326.34;;;22.26;58.78
48364;BME280;34170;54.364;18.582;2023-08-07T08:03:01;98325.16;;;22.02;61.08
48364;BME280;34170;54.364;18.582;2023-08-07T08:05:28;98349.13;;;21.79;64.13
48364;BME280;34170;54.364;18.582;2023-08-07T08:07:56;98327.09;;;21.16;66.46
48364;BME280;34170;54.364;18.582;2023-08-07T08:10:24;98322.41;;;21.11;68.21
48364;BME280;34170;54.364;18.582;2023-08-07T08:12:56;98337.59;;;20.97;68.60
48364;BME280;34170;54.364;18.582;2023-08-07T08:15:23;98335.28;;;20.79;67.89
48364;BME280;34170;54.364;18.582;2023-08-07T08:17:51;98328.16;;;20.50;71.77
48364;BME280;34170;54.364;18.582;2023-08-07T08:20:19;98330.50;;;19.53;76.55
48364;BME280;34170;54.364;18.582;2023-08-07T08:22:47;98338.81;;;20.25;74.59
48364;BME280;34170;54.364;18.582;2023-08-07T08:25:14;98344.88;;;20.10;73.55
48364;BME280;34170;54.364;18.582;2023-08-07T08:27:42;98337.78;;;19.48;77.42
48364;BME280;34170;54.364;18.582;2023-08-07T08:30:10;98339.53;;;19.37;78.33
48364;BME280;34170;54.364;18.582;2023-08-07T08:32:38;98342.66;;;19.46;77.53
48364;BME280;34170;54.364;18.582;2023-08-07T08:35:07;98343.75;;;18.94;79.68
48364;BME280;34170;54.364;18.582;2023-08-07T08:37:34;98326.41;;;18.83;80.76
48364;BME280;34170;54.364;18.582;2023-08-07T08:40:02;98339.09;;;18.77;81.70
48364;BME280;34170;54.364;18.582;2023-08-07T08:42:31;98355.44;;;18.77;82.16
48364;BME280;34170;54.364;18.582;2023-08-07T08:44:58;98347.47;;;19.04;82.47
48364;BME280;34170;54.364;18.582;2023-08-07T08:47:26;98359.97;;;19.17;80.82
48364;BME280;34170;54.364;18.582;2023-08-07T08:50:00;98361.34;;;19.20;82.09
48364;BME280;34170;54.364;18.582;2023-08-07T08:52:31;98365.84;;;18.80;83.56
48364;BME280;34170;54.364;18.582;2023-08-07T08:54:59;98355.41;;;18.89;83.73
48364;BME280;34170;54.364;18.582;2023-08-07T08:57:29;98377.38;;;19.16;81.60
48364;BME280;34170;54.364;18.582;2023-08-07T08:59:57;98386.00;;;19.47;78.83
48364;BME280;34170;54.364;18.582;2023-08-07T09:02:25;98400.84;;;18.89;82.96
48364;BME280;34170;54.364;18.582;2023-08-07T09:04:53;98400.47;;;18.97;82.51
48364;BME280;34170;54.364;18.582;2023-08-07T09:07:21;98401.63;;;19.35;80.22
48364;BME280;34170;54.364;18.582;2023-08-07T09:09:49;98422.19;;;19.59;76.68
48364;BME280;34170;54.364;18.582;2023-08-07T09:12:25;98416.31;;;20.51;71.66
48364;BME280;34170;54.364;18.582;2023-08-07T09:14:57;98420.88;;;21.49;67.33
48364;BME280;34170;54.364;18.582;2023-08-07T09:17:29;98410.13;;;21.80;64.14
48364;BME280;34170;54.364;18.582;2023-08-07T09:19:57;98406.78;;;21.35;66.46
48364;BME280;34170;54.364;18.582;2023-08-07T09:22:25;98419.28;;;22.01;62.30
48364;BME280;34170;54.364;18.582;2023-08-07T09:24:52;98418.69;;;21.51;65.05
48364;BME280;34170;54.364;18.582;2023-08-07T09:27:20;98411.22;;;20.82;64.71
48364;BME280;34170;54.364;18.582;2023-08-07T09:29:48;98411.53;;;20.85;65.74
48364;BME280;34170;54.364;18.582;2023-08-07T09:32:15;98427.91;;;22.25;62.20
48364;BME280;34170;54.364;18.582;2023-08-07T09:34:45;98456.56;;;22.12;60.41
48364;BME280;34170;54.364;18.582;2023-08-07T09:37:13;98450.25;;;21.04;63.47
48364;BME280;34170;54.364;18.582;2023-08-07T09:39:40;98443.50;;;21.77;61.48
48364;BME280;34170;54.364;18.582;2023-08-07T09:42:14;98441.25;;;21.36;61.91
48364;BME280;34170;54.364;18.582;2023-08-07T09:44:43;98440.13;;;20.78;67.14
48364;BME280;34170;54.364;18.582;2023-08-07T09:47:17;98442.66;;;21.76;63.31
48364;BME280;34170;54.364;18.582;2023-08-07T09:49:46;98445.03;;;21.62;61.36
48364;BME280;34170;54.364;18.582;2023-08-07T09:52:14;98451.59;;;21.02;65.53
48364;BME280;34170;54.364;18.582;2023-08-07T09:54:42;98445.44;;;21.17;64.31
48364;BME280;34170;54.364;18.582;2023-08-07T09:57:10;98434.84;;;20.93;65.67
48364;BME280;34170;54.364;18.582;2023-08-07T09:59:37;98434.66;;;21.32;64.32
48364;BME280;34170;54.364;18.582;2023-08-07T10:02:05;98442.75;;;21.22;63.62
48364;BME280;34170;54.364;18.582;2023-08-07T10:04:34;98440.13;;;21.37;63.80
48364;BME280;34170;54.364;18.582;2023-08-07T10:07:02;98437.78;;;21.46;62.32
48364;BME280;34170;54.364;18.582;2023-08-07T10:09:30;98441.03;;;21.75;61.46
48364;BME280;34170;54.364;18.582;2023-08-07T10:12:00;98442.00;;;21.59;61.64
48364;BME280;34170;54.364;18.582;2023-08-07T10:14:28;98445.31;;;22.61;59.66
48364;BME280;34170;54.364;18.582;2023-08-07T10:16:56;98447.78;;;22.10;59.27
48364;BME280;34170;54.364;18.582;2023-08-07T10:19:24;98439.75;;;21.50;59.41
48364;BME280;34170;54.364;18.582;2023-08-07T10:21:52;98432.91;;;21.53;59.59
48364;BME280;34170;54.364;18.582;2023-08-07T10:24:22;98462.13;;;21.47;60.80
48364;BME280;34170;54.364;18.582;2023-08-07T10:26:51;98476.47;;;21.32;63.48
48364;BME280;34170;54.364;18.582;2023-08-07T10:29:20;98457.00;;;20.69;62.13
48364;BME280;34170;54.364;18.582;2023-08-07T10:31:52;98459.09;;;21.17;60.98
48364;BME280;34170;54.364;18.582;2023-08-07T10:34:22;98464.88;;;21.47;60.83
48364;BME280;34170;54.364;18.582;2023-08-07T10:36:49;98476.59;;;22.18;58.92
48364;BME280;34170;54.364;18.582;2023-08-07T10:39:17;98463.09;;;22.59;55.49
48364;BME280;34170;54.364;18.582;2023-08-07T10:41:46;98466.44;;;22.76;54.77
48364;BME280;34170;54.364;18.582;2023-08-07T10:44:27;98488.06;;;22.73;54.76
48364;BME280;34170;54.364;18.582;2023-08-07T10:46:58;98482.34;;;22.79;56.88
48364;BME280;34170;54.364;18.582;2023-08-07T10:52:11;98477.22;;;22.98;53.11
48364;BME280;34170;54.364;18.582;2023-08-07T10:54:40;98482.59;;;22.73;55.17
48364;BME280;34170;54.364;18.582;2023-08-07T10:57:11;98476.53;;;21.70;56.87
48364;BME280;34170;54.364;18.582;2023-08-07T10:59:48;98476.53;;;22.65;54.74
48364;BME280;34170;54.364;18.582;2023-08-07T11:02:24;98478.63;;;22.38;56.90
48364;BME280;34170;54.364;18.582;2023-08-07T11:04:55;98472.22;;;22.22;56.18
48364;BME280;34170;54.364;18.582;2023-08-07T11:07:28;98468.38;;;21.75;57.97
48364;BME280;34170;54.364;18.582;2023-08-07T11:09:57;98490.47;;;22.54;57.29
48364;BME280;34170;54.364;18.582;2023-08-07T11:12:28;98494.81;;;22.50;54.48
48364;BME280;34170;54.364;18.582;2023-08-07T11:14:55;98492.28;;;21.90;57.21
48364;BME280;34170;54.364;18.582;2023-08-07T11:17:27;98488.69;;;21.84;58.70
48364;BME280;34170;54.364;18.582;2023-08-07T11:19:56;98494.66;;;22.19;58.65
48364;BME280;34170;54.364;18.582;2023-08-07T11:22:24;98495.94;;;22.06;55.35
48364;BME280;34170;54.364;18.582;2023-08-07T11:24:51;98501.25;;;21.80;56.68
48364;BME280;34170;54.364;18.582;2023-08-07T11:27:21;98510.44;;;22.49;54.90
48364;BME280;34170;54.364;18.582;2023-08-07T11:29:48;98504.97;;;21.69;56.75
48364;BME280;34170;54.364;18.582;2023-08-07T11:32:18;98526.84;;;21.69;59.00
48364;BME280;34170;54.364;18.582;2023-08-07T11:34:51;98521.63;;;21.67;57.63
48364;BME280;34170;54.364;18.582;2023-08-07T11:37:19;98510.00;;;21.23;59.93
48364;BME280;34170;54.364;18.582;2023-08-07T11:39:46;98520.91;;;21.18;59.56
48364;BME280;34170;54.364;18.582;2023-08-07T11:42:14;98535.75;;;21.05;59.53
48364;BME280;34170;54.364;18.582;2023-08-07T11:44:41;98524.94;;;20.88;60.63
48364;BME280;34170;54.364;18.582;2023-08-07T11:47:10;98515.50;;;21.28;57.79
48364;BME280;34170;54.364;18.582;2023-08-07T11:49:38;98520.22;;;21.05;59.97
48364;BME280;34170;54.364;18.582;2023-08-07T11:52:06;98525.63;;;20.78;60.89
48364;BME280;34170;54.364;18.582;2023-08-07T11:54:33;98516.91;;;21.03;61.50
48364;BME280;34170;54.364;18.582;2023-08-07T11:57:01;98502.91;;;20.72;61.41
48364;BME280;34170;54.364;18.582;2023-08-07T11:59:29;98513.72;;;21.11;60.74
48364;BME280;34170;54.364;18.582;2023-08-07T12:01:56;98504.44;;;20.63;61.75
48364;BME280;34170;54.364;18.582;2023-08-07T12:04:24;98520.47;;;21.31;61.25
48364;BME280;34170;54.364;18.582;2023-08-07T12:06:53;98513.13;;;21.59;59.92
48364;BME280;34170;54.364;18.582;2023-08-07T12:09:22;98504.41;;;21.67;60.40
48364;BME280;34170;54.364;18.582;2023-08-07T12:11:55;98505.31;;;21.78;59.21
48364;BME280;34170;54.364;18.582;2023-08-07T12:14:28;98500.34;;;21.75;57.69
48364;BME280;34170;54.364;18.582;2023-08-07T12:16:56;98512.78;;;21.87;59.64
48364;BME280;34170;54.364;18.582;2023-08-07T12:19:24;98522.91;;;21.55;59.20
48364;BME280;34170;54.364;18.582;2023-08-07T12:21:52;98501.28;;;21.26;60.03
48364;BME280;34170;54.364;18.582;2023-08-07T12:24:19;98497.50;;;20.78;61.04
48364;BME280;34170;54.364;18.582;2023-08-07T12:26:47;98514.00;;;21.42;61.66
48364;BME280;34170;54.364;18.582;2023-08-07T12:29:14;98506.00;;;21.03;60.30
48364;BME280;34170;54.364;18.582;2023-08-07T12:31:42;98507.78;;;20.70;62.82
48364;BME280;34170;54.364;18.582;2023-08-07T12:34:10;98533.47;;;20.69;63.86
48364;BME280;34170;54.364;18.582;2023-08-07T12:36:41;98539.81;;;20.36;62.99
48364;BME280;34170;54.364;18.582;2023-08-07T12:39:08;98538.16;;;20.35;63.81
48364;BME280;34170;54.364;18.582;2023-08-07T12:41:37;98549.56;;;20.71;62.75
48364;BME280;34170;54.364;18.582;2023-08-07T12:44:07;98539.66;;;20.87;62.09
48364;BME280;34170;54.364;18.582;2023-08-07T12:46:35;98542.94;;;20.45;62.91
48364;BME280;34170;54.364;18.582;2023-08-07T12:49:08;98525.84;;;20.54;64.68
48364;BME280;34170;54.364;18.582;2023-08-07T12:51:36;98510.25;;;20.94;61.96
48364;BME280;34170;54.364;18.582;2023-08-07T12:54:04;98520.31;;;21.16;62.77
48364;BME280;34170;54.364;18.582;2023-08-07T12:56:32;98510.94;;;20.40;63.22